sensor_id;sensor_type;location;lat;lon;timestamp;temperature;humidity
17728;DHT22;8984;49.268;12.302;2023-02-11T00:01:52;-0.70;99.90
17728;DHT22;8984;49.268;12.302;2023-02-11T00:04:19;-0.80;99.90
17728;DHT22;8984;49.268;12.302;2023-02-11T00:06:45;-0.90;99.90
17728;DHT22;8984;49.268;12.302;2023-02-11T00:09:12;-0.80;99.90
17728;DHT22;8984;49.268;12.302;2023-02-11T00:11:40;-0.90;99.90
17728;DHT22;8984;49.268;12.302;2023-02-11T00:14:08;-0.90;99.90
17728;DHT22;8984;49.268;12.302;2023-02-11T00:16:36;-0.90;99.90
17728;DHT22;8984;49.268;12.302;2023-02-11T00:19:03;-0.90;99.90
17728;DHT22;8984;49.268;12.302;2023-02-11T00:21:31;-0.90;99.90
17728;DHT22;8984;49.268;12.302;2023-02-11T00:23:59;-1.00;99.90
17728;DHT22;8984;49.268;12.302;2023-02-11T00:26:28;-1.00;99.90
17728;DHT22;8984;49.268;12.302;2023-02-11T00:28:56;-1.00;99.90
17728;DHT22;8984;49.268;12.302;2023-02-11T00:31:24;-1.00;99.90
17728;DHT22;8984;49.268;12.302;2023-02-11T00:33:51;-1.00;99.90
17728;DHT22;8984;49.268;12.302;2023-02-11T00:36:19;-1.10;99.90
17728;DHT22;8984;49.268;12.302;2023-02-11T00:38:48;-1.10;99.90
17728;DHT22;8984;49.268;12.302;2023-02-11T00:41:16;-1.10;99.90
17728;DHT22;8984;49.268;12.302;2023-02-11T00:43:44;-1.10;99.90
17728;DHT22;8984;49.268;12.302;2023-02-11T00:46:13;-1.20;99.90
17728;DHT22;8984;49.268;12.302;2023-02-11T00:48:42;-1.20;99.90
17728;DHT22;8984;49.268;12.302;2023-02-11T00:51:08;-1.20;99.90
17728;DHT22;8984;49.268;12.302;2023-02-11T00:53:35;-1.20;99.90
17728;DHT22;8984;49.268;12.302;2023-02-11T00:56:03;-1.20;99.90
17728;DHT22;8984;49.268;12.302;2023-02-11T00:58:30;-1.20;99.90
17728;DHT22;8984;49.268;12.302;2023-02-11T01:00:57;-1.30;99.90
17728;DHT22;8984;49.268;12.302;2023-02-11T01:03:25;-1.30;99.90
17728;DHT22;8984;49.268;12.302;2023-02-11T01:05:52;-1.30;99.90
17728;DHT22;8984;49.268;12.302;2023-02-11T01:08:19;-1.30;99.90
17728;DHT22;8984;49.268;12.302;2023-02-11T01:10:53;-1.40;99.90
17728;DHT22;8984;49.268;12.302;2023-02-11T01:13:20;-1.50;99.90
17728;DHT22;8984;49.268;12.302;2023-02-11T01:15:47;-1.50;99.90
17728;DHT22;8984;49.268;12.302;2023-02-11T01:18:14;-1.60;99.90
17728;DHT22;8984;49.268;12.302;2023-02-11T01:20:42;-1.50;99.90
17728;DHT22;8984;49.268;12.302;2023-02-11T01:23:09;-1.60;99.90
17728;DHT22;8984;49.268;12.302;2023-02-11T01:25:36;-1.60;99.90
17728;DHT22;8984;49.268;12.302;2023-02-11T01:28:03;-1.60;99.90
17728;DHT22;8984;49.268;12.302;2023-02-11T01:30:30;-1.60;99.90
17728;DHT22;8984;49.268;12.302;2023-02-11T01:32:57;-1.50;99.90
17728;DHT22;8984;49.268;12.302;2023-02-11T01:35:24;-1.50;99.90
17728;DHT22;8984;49.268;12.302;2023-02-11T01:37:52;-1.60;99.90
17728;DHT22;8984;49.268;12.302;2023-02-11T01:40:18;-1.60;99.90
17728;DHT22;8984;49.268;12.302;2023-02-11T01:42:45;-1.50;99.90
17728;DHT22;8984;49.268;12.302;2023-02-11T01:45:41;-1.50;99.90
17728;DHT22;8984;49.268;12.302;2023-02-11T01:48:16;-1.60;99.90
17728;DHT22;8984;49.268;12.302;2023-02-11T01:50:47;-1.60;99.90
17728;DHT22;8984;49.268;12.302;2023-02-11T01:53:16;-1.50;99.90
17728;DHT22;8984;49.268;12.302;2023-02-11T01:56:07;-1.50;99.90
17728;DHT22;8984;49.268;12.302;2023-02-11T01:58:52;-1.50;99.90
17728;DHT22;8984;49.268;12.302;2023-02-11T02:01:24;-1.50;99.90
17728;DHT22;8984;49.268;12.302;2023-02-11T02:03:54;-1.50;99.90
17728;DHT22;8984;49.268;12.302;2023-02-11T02:06:26;-1.50;99.90
17728;DHT22;8984;49.268;12.302;2023-02-11T02:09:01;-1.50;99.90
17728;DHT22;8984;49.268;12.302;2023-02-11T02:11:29;-1.60;99.90
17728;DHT22;8984;49.268;12.302;2023-02-11T02:13:57;-1.80;99.90
17728;DHT22;8984;49.268;12.302;2023-02-11T02:16:29;-2.10;99.90
17728;DHT22;8984;49.268;12.302;2023-02-11T02:19:06;-2.00;99.90
17728;DHT22;8984;49.268;12.302;2023-02-11T02:21:59;-1.90;99.90
17728;DHT22;8984;49.268;12.302;2023-02-11T02:24:42;-1.90;99.90
17728;DHT22;8984;49.268;12.302;2023-02-11T02:27:35;-1.80;99.90
17728;DHT22;8984;49.268;12.302;2023-02-11T02:30:19;-1.80;99.90
17728;DHT22;8984;49.268;12.302;2023-02-11T02:35:46;-1.80;99.90
17728;DHT22;8984;49.268;12.302;2023-02-11T02:38:18;-2.00;99.90
17728;DHT22;8984;49.268;12.302;2023-02-11T02:40:49;-2.00;99.90
17728;DHT22;8984;49.268;12.302;2023-02-11T02:43:17;-2.10;99.90
17728;DHT22;8984;49.268;12.302;2023-02-11T02:45:44;-1.90;99.90
17728;DHT22;8984;49.268;12.302;2023-02-11T02:48:24;-1.90;99.90
17728;DHT22;8984;49.268;12.302;2023-02-11T02:50:56;-1.80;99.90
17728;DHT22;8984;49.268;12.302;2023-02-11T02:53:34;-1.80;99.90
17728;DHT22;8984;49.268;12.302;2023-02-11T02:56:09;-1.70;99.90
17728;DHT22;8984;49.268;12.302;2023-02-11T02:59:07;-1.70;99.90
17728;DHT22;8984;49.268;12.302;2023-02-11T03:01:42;-1.70;99.90
17728;DHT22;8984;49.268;12.302;2023-02-11T03:04:21;-1.60;99.90
17728;DHT22;8984;49.268;12.302;2023-02-11T03:06:55;-1.60;99.90
17728;DHT22;8984;49.268;12.302;2023-02-11T03:09:28;-1.50;99.90
17728;DHT22;8984;49.268;12.302;2023-02-11T03:11:58;-1.50;99.90
17728;DHT22;8984;49.268;12.302;2023-02-11T03:14:27;-1.50;99.90
17728;DHT22;8984;49.268;12.302;2023-02-11T03:16:57;-1.50;99.90
17728;DHT22;8984;49.268;12.302;2023-02-11T03:19:29;-1.50;99.90
17728;DHT22;8984;49.268;12.302;2023-02-11T03:21:57;-1.40;99.90
17728;DHT22;8984;49.268;12.302;2023-02-11T03:24:28;-1.50;99.90
17728;DHT22;8984;49.268;12.302;2023-02-11T03:26:59;-1.50;99.90
17728;DHT22;8984;49.268;12.302;2023-02-11T03:29:32;-1.50;99.90
17728;DHT22;8984;49.268;12.302;2023-02-11T03:32:04;-1.60;99.90
17728;DHT22;8984;49.268;12.302;2023-02-11T03:34:39;-1.50;99.90
17728;DHT22;8984;49.268;12.302;2023-02-11T03:37:11;-1.50;99.90
17728;DHT22;8984;49.268;12.302;2023-02-11T03:39:42;-1.40;99.90
17728;DHT22;8984;49.268;12.302;2023-02-11T03:42:12;-1.50;99.90
17728;DHT22;8984;49.268;12.302;2023-02-11T03:44:44;-1.50;99.90
17728;DHT22;8984;49.268;12.302;2023-02-11T03:47:14;-1.60;99.90
17728;DHT22;8984;49.268;12.302;2023-02-11T03:49:47;-1.60;99.90
17728;DHT22;8984;49.268;12.302;2023-02-11T03:52:17;-1.50;99.90
17728;DHT22;8984;49.268;12.302;2023-02-11T03:54:46;-1.40;99.90
17728;DHT22;8984;49.268;12.302;2023-02-11T03:57:14;-1.40;99.90
17728;DHT22;8984;49.268;12.302;2023-02-11T03:59:52;-1.40;99.90
17728;DHT22;8984;49.268;12.302;2023-02-11T04:02:19;-1.30;99.90
17728;DHT22;8984;49.268;12.302;2023-02-11T04:04:48;-1.30;99.90
17728;DHT22;8984;49.268;12.302;2023-02-11T04:07:14;-1.30;99.90
17728;DHT22;8984;49.268;12.302;2023-02-11T04:09:41;-1.20;99.90
17728;DHT22;8984;49.268;12.302;2023-02-11T04:12:08;-1.20;99.90
17728;DHT22;8984;49.268;12.302;2023-02-11T04:14:35;-1.20;99.90
17728;DHT22;8984;49.268;12.302;2023-02-11T04:17:02;-1.30;99.90
17728;DHT22;8984;49.268;12.302;2023-02-11T04:19:29;-1.30;99.90
17728;DHT22;8984;49.268;12.302;2023-02-11T04:21:58;-1.30;99.90
17728;DHT22;8984;49.268;12.302;2023-02-11T04:24:24;-1.20;99.90
17728;DHT22;8984;49.268;12.302;2023-02-11T04:26:51;-1.10;99.90
17728;DHT22;8984;49.268;12.302;2023-02-11T04:29:18;-1.10;99.90
17728;DHT22;8984;49.268;12.302;2023-02-11T04:31:45;-1.00;99.90
17728;DHT22;8984;49.268;12.302;2023-02-11T04:34:12;-1.00;99.90
17728;DHT22;8984;49.268;12.302;2023-02-11T04:36:39;-1.00;99.90
17728;DHT22;8984;49.268;12.302;2023-02-11T04:39:07;-0.90;99.90
17728;DHT22;8984;49.268;12.302;2023-02-11T04:41:34;-0.80;99.90
17728;DHT22;8984;49.268;12.302;2023-02-11T04:44:01;-0.90;99.90
17728;DHT22;8984;49.268;12.302;2023-02-11T04:46:28;-0.90;99.90
17728;DHT22;8984;49.268;12.302;2023-02-11T04:48:55;-0.90;99.90
17728;DHT22;8984;49.268;12.302;2023-02-11T04:51:22;-0.90;99.90
17728;DHT22;8984;49.268;12.302;2023-02-11T04:53:49;-0.80;99.90
17728;DHT22;8984;49.268;12.302;2023-02-11T04:56:17;-0.80;99.90
17728;DHT22;8984;49.268;12.302;2023-02-11T04:58:44;-0.70;99.90
17728;DHT22;8984;49.268;12.302;2023-02-11T05:01:13;-0.70;99.90
17728;DHT22;8984;49.268;12.302;2023-02-11T05:03:40;-0.80;99.90
17728;DHT22;8984;49.268;12.302;2023-02-11T05:06:09;-0.70;99.90
17728;DHT22;8984;49.268;12.302;2023-02-11T05:08:36;-0.70;99.90
17728;DHT22;8984;49.268;12.302;2023-02-11T05:11:03;-0.70;99.90
17728;DHT22;8984;49.268;12.302;2023-02-11T05:13:32;-0.70;99.90
17728;DHT22;8984;49.268;12.302;2023-02-11T05:15:59;-0.60;99.90
17728;DHT22;8984;49.268;12.302;2023-02-11T05:18:25;-0.60;99.90
17728;DHT22;8984;49.268;12.302;2023-02-11T05:20:52;-0.60;99.90
17728;DHT22;8984;49.268;12.302;2023-02-11T05:23:19;-0.60;99.90
17728;DHT22;8984;49.268;12.302;2023-02-11T05:25:46;-0.50;99.90
17728;DHT22;8984;49.268;12.302;2023-02-11T05:28:13;-0.50;99.90
17728;DHT22;8984;49.268;12.302;2023-02-11T05:30:41;-0.40;99.90
17728;DHT22;8984;49.268;12.302;2023-02-11T05:33:08;-0.40;99.90
17728;DHT22;8984;49.268;12.302;2023-02-11T05:35:34;-0.40;99.90
17728;DHT22;8984;49.268;12.302;2023-02-11T05:38:01;-0.40;99.90
17728;DHT22;8984;49.268;12.302;2023-02-11T05:40:28;-0.40;99.90
17728;DHT22;8984;49.268;12.302;2023-02-11T05:42:55;-0.60;99.90
17728;DHT22;8984;49.268;12.302;2023-02-11T05:45:22;-0.50;99.90
17728;DHT22;8984;49.268;12.302;2023-02-11T05:47:50;-0.40;99.90
17728;DHT22;8984;49.268;12.302;2023-02-11T05:50:17;-0.30;99.90
17728;DHT22;8984;49.268;12.302;2023-02-11T05:52:44;-0.20;99.90
17728;DHT22;8984;49.268;12.302;2023-02-11T05:55:10;-0.30;99.90
17728;DHT22;8984;49.268;12.302;2023-02-11T05:57:37;-0.30;99.90
17728;DHT22;8984;49.268;12.302;2023-02-11T06:00:05;-0.30;99.90
17728;DHT22;8984;49.268;12.302;2023-02-11T06:02:32;-0.20;99.90
17728;DHT22;8984;49.268;12.302;2023-02-11T06:05:00;-0.10;99.90
17728;DHT22;8984;49.268;12.302;2023-02-11T06:07:27;-0.10;99.90
17728;DHT22;8984;49.268;12.302;2023-02-11T06:09:54;0.00;99.90
17728;DHT22;8984;49.268;12.302;2023-02-11T06:12:21;0.00;99.90
17728;DHT22;8984;49.268;12.302;2023-02-11T06:14:48;0.10;99.90
17728;DHT22;8984;49.268;12.302;2023-02-11T06:17:14;0.20;99.90
17728;DHT22;8984;49.268;12.302;2023-02-11T06:19:41;0.20;99.90
17728;DHT22;8984;49.268;12.302;2023-02-11T06:22:10;0.30;99.90
17728;DHT22;8984;49.268;12.302;2023-02-11T06:24:37;0.30;99.90
17728;DHT22;8984;49.268;12.302;2023-02-11T06:27:04;0.40;99.90
17728;DHT22;8984;49.268;12.302;2023-02-11T06:29:31;0.50;99.90
17728;DHT22;8984;49.268;12.302;2023-02-11T06:31:57;0.60;99.90
17728;DHT22;8984;49.268;12.302;2023-02-11T06:34:24;0.60;99.90
17728;DHT22;8984;49.268;12.302;2023-02-11T06:36:51;0.60;99.90
17728;DHT22;8984;49.268;12.302;2023-02-11T06:39:20;0.70;99.90
17728;DHT22;8984;49.268;12.302;2023-02-11T06:41:47;0.80;99.90
17728;DHT22;8984;49.268;12.302;2023-02-11T06:44:14;0.90;99.90
17728;DHT22;8984;49.268;12.302;2023-02-11T06:46:41;0.90;99.90
17728;DHT22;8984;49.268;12.302;2023-02-11T06:49:09;0.90;99.90
17728;DHT22;8984;49.268;12.302;2023-02-11T06:51:36;1.00;99.90
17728;DHT22;8984;49.268;12.302;2023-02-11T06:54:04;0.90;99.90
17728;DHT22;8984;49.268;12.302;2023-02-11T06:56:33;1.10;99.90
17728;DHT22;8984;49.268;12.302;2023-02-11T06:59:01;1.00;99.90
17728;DHT22;8984;49.268;12.302;2023-02-11T07:01:28;1.10;99.90
17728;DHT22;8984;49.268;12.302;2023-02-11T07:03:55;1.10;99.90
17728;DHT22;8984;49.268;12.302;2023-02-11T07:06:23;1.10;99.90
17728;DHT22;8984;49.268;12.302;2023-02-11T07:08:52;1.20;99.90
17728;DHT22;8984;49.268;12.302;2023-02-11T07:11:20;1.30;99.90
17728;DHT22;8984;49.268;12.302;2023-02-11T07:13:50;1.40;99.90
17728;DHT22;8984;49.268;12.302;2023-02-11T07:16:19;1.40;99.90
17728;DHT22;8984;49.268;12.302;2023-02-11T07:18:47;1.50;99.90
17728;DHT22;8984;49.268;12.302;2023-02-11T07:21:16;1.60;99.90
17728;DHT22;8984;49.268;12.302;2023-02-11T07:23:43;1.60;99.90
17728;DHT22;8984;49.268;12.302;2023-02-11T07:26:12;1.70;99.90
17728;DHT22;8984;49.268;12.302;2023-02-11T07:28:39;1.70;99.90
17728;DHT22;8984;49.268;12.302;2023-02-11T07:31:09;1.80;99.90
17728;DHT22;8984;49.268;12.302;2023-02-11T07:33:36;1.80;99.90
17728;DHT22;8984;49.268;12.302;2023-02-11T07:36:05;1.90;99.90
17728;DHT22;8984;49.268;12.302;2023-02-11T07:38:33;2.00;99.90
17728;DHT22;8984;49.268;12.302;2023-02-11T07:41:01;2.00;99.90
17728;DHT22;8984;49.268;12.302;2023-02-11T07:43:28;1.90;99.90
17728;DHT22;8984;49.268;12.302;2023-02-11T07:45:56;1.90;99.90
17728;DHT22;8984;49.268;12.302;2023-02-11T07:48:24;1.80;99.90
17728;DHT22;8984;49.268;12.302;2023-02-11T07:50:51;1.70;99.90
17728;DHT22;8984;49.268;12.302;2023-02-11T07:53:17;1.50;99.90
17728;DHT22;8984;49.268;12.302;2023-02-11T07:55:44;1.70;99.90
17728;DHT22;8984;49.268;12.302;2023-02-11T07:58:11;1.90;99.90
17728;DHT22;8984;49.268;12.302;2023-02-11T08:00:38;2.00;99.90
17728;DHT22;8984;49.268;12.302;2023-02-11T08:03:05;2.10;99.90
17728;DHT22;8984;49.268;12.302;2023-02-11T08:05:36;2.20;99.90
17728;DHT22;8984;49.268;12.302;2023-02-11T08:08:03;2.40;99.90
17728;DHT22;8984;49.268;12.302;2023-02-11T08:10:30;2.50;99.90
17728;DHT22;8984;49.268;12.302;2023-02-11T08:12:57;2.50;99.90
17728;DHT22;8984;49.268;12.302;2023-02-11T08:15:24;2.70;99.90
17728;DHT22;8984;49.268;12.302;2023-02-11T08:17:51;2.90;99.90
17728;DHT22;8984;49.268;12.302;2023-02-11T08:20:18;3.10;99.90
17728;DHT22;8984;49.268;12.302;2023-02-11T08:22:46;3.20;99.90
17728;DHT22;8984;49.268;12.302;2023-02-11T08:25:13;3.20;99.90
17728;DHT22;8984;49.268;12.302;2023-02-11T08:27:40;3.20;99.90
17728;DHT22;8984;49.268;12.302;2023-02-11T08:30:07;3.20;99.90
17728;DHT22;8984;49.268;12.302;2023-02-11T08:32:34;3.20;99.90
17728;DHT22;8984;49.268;12.302;2023-02-11T08:35:02;3.20;99.90
17728;DHT22;8984;49.268;12.302;2023-02-11T08:37:28;3.40;99.90
17728;DHT22;8984;49.268;12.302;2023-02-11T08:39:56;3.20;99.90
17728;DHT22;8984;49.268;12.302;2023-02-11T08:42:23;3.30;99.90
17728;DHT22;8984;49.268;12.302;2023-02-11T08:44:50;3.40;99.90
17728;DHT22;8984;49.268;12.302;2023-02-11T08:47:17;3.30;99.90
17728;DHT22;8984;49.268;12.302;2023-02-11T08:49:44;3.40;99.90
17728;DHT22;8984;49.268;12.302;2023-02-11T08:52:10;3.40;99.90
17728;DHT22;8984;49.268;12.302;2023-02-11T08:54:37;3.50;99.90
17728;DHT22;8984;49.268;12.302;2023-02-11T08:57:06;3.60;99.90
17728;DHT22;8984;49.268;12.302;2023-02-11T08:59:33;3.60;99.90
17728;DHT22;8984;49.268;12.302;2023-02-11T09:02:00;3.70;99.90
17728;DHT22;8984;49.268;12.302;2023-02-11T09:04:27;3.80;99.90
17728;DHT22;8984;49.268;12.302;2023-02-11T09:06:53;3.80;99.90
17728;DHT22;8984;49.268;12.302;2023-02-11T09:09:20;3.80;99.90
17728;DHT22;8984;49.268;12.302;2023-02-11T09:11:47;3.90;99.90
17728;DHT22;8984;49.268;12.302;2023-02-11T09:14:18;4.00;99.90
17728;DHT22;8984;49.268;12.302;2023-02-11T09:16:45;4.00;99.90
17728;DHT22;8984;49.268;12.302;2023-02-11T09:19:11;4.00;99.90
17728;DHT22;8984;49.268;12.302;2023-02-11T09:21:38;4.10;99.90
17728;DHT22;8984;49.268;12.302;2023-02-11T09:24:05;4.10;99.90
17728;DHT22;8984;49.268;12.302;2023-02-11T09:26:33;4.10;99.90
17728;DHT22;8984;49.268;12.302;2023-02-11T09:29:02;4.20;99.90
17728;DHT22;8984;49.268;12.302;2023-02-11T09:31:32;4.20;99.90
17728;DHT22;8984;49.268;12.302;2023-02-11T09:34:01;4.20;99.90
17728;DHT22;8984;49.268;12.302;2023-02-11T09:36:30;4.20;99.90
17728;DHT22;8984;49.268;12.302;2023-02-11T09:38:59;4.10;99.90
17728;DHT22;8984;49.268;12.302;2023-02-11T09:41:58;4.20;99.90
17728;DHT22;8984;49.268;12.302;2023-02-11T09:44:32;4.20;99.90
17728;DHT22;8984;49.268;12.302;2023-02-11T09:47:02;4.20;99.90
17728;DHT22;8984;49.268;12.302;2023-02-11T09:49:34;4.30;99.90
17728;DHT22;8984;49.268;12.302;2023-02-11T09:52:05;4.40;99.90
17728;DHT22;8984;49.268;12.302;2023-02-11T09:54:36;4.20;99.90
17728;DHT22;8984;49.268;12.302;2023-02-11T09:57:06;4.10;99.90
17728;DHT22;8984;49.268;12.302;2023-02-11T09:59:34;4.20;99.90
17728;DHT22;8984;49.268;12.302;2023-02-11T10:02:05;4.20;99.90
17728;DHT22;8984;49.268;12.302;2023-02-11T10:04:51;4.30;99.90
17728;DHT22;8984;49.268;12.302;2023-02-11T10:07:27;4.30;99.90
17728;DHT22;8984;49.268;12.302;2023-02-11T10:10:02;4.00;99.90
17728;DHT22;8984;49.268;12.302;2023-02-11T10:12:48;4.10;99.90
17728;DHT22;8984;49.268;12.302;2023-02-11T10:15:23;4.30;99.90
17728;DHT22;8984;49.268;12.302;2023-02-11T10:18:05;4.30;99.90
17728;DHT22;8984;49.268;12.302;2023-02-11T10:20:37;4.30;99.90
17728;DHT22;8984;49.268;12.302;2023-02-11T10:23:12;4.30;99.90
17728;DHT22;8984;49.268;12.302;2023-02-11T10:25:42;4.40;99.90
17728;DHT22;8984;49.268;12.302;2023-02-11T10:28:12;4.40;99.90
17728;DHT22;8984;49.268;12.302;2023-02-11T10:30:42;4.50;99.90
17728;DHT22;8984;49.268;12.302;2023-02-11T10:33:21;4.60;99.90
17728;DHT22;8984;49.268;12.302;2023-02-11T10:35:49;4.70;99.90
17728;DHT22;8984;49.268;12.302;2023-02-11T10:38:16;4.80;99.90
17728;DHT22;8984;49.268;12.302;2023-02-11T10:40:43;4.90;99.90
17728;DHT22;8984;49.268;12.302;2023-02-11T10:43:13;5.30;99.90
17728;DHT22;8984;49.268;12.302;2023-02-11T10:45:42;5.30;99.90
17728;DHT22;8984;49.268;12.302;2023-02-11T10:48:42;5.20;99.90
17728;DHT22;8984;49.268;12.302;2023-02-11T10:51:17;5.30;99.90
17728;DHT22;8984;49.268;12.302;2023-02-11T10:53:44;5.10;99.90
17728;DHT22;8984;49.268;12.302;2023-02-11T10:56:13;5.30;99.90
17728;DHT22;8984;49.268;12.302;2023-02-11T10:58:53;5.10;99.90
17728;DHT22;8984;49.268;12.302;2023-02-11T11:01:21;5.20;99.90
17728;DHT22;8984;49.268;12.302;2023-02-11T11:03:51;5.30;99.90
17728;DHT22;8984;49.268;12.302;2023-02-11T11:06:28;5.40;99.90
17728;DHT22;8984;49.268;12.302;2023-02-11T11:08:56;5.90;99.90
17728;DHT22;8984;49.268;12.302;2023-02-11T11:11:25;5.70;99.90
17728;DHT22;8984;49.268;12.302;2023-02-11T11:13:56;5.80;99.90
17728;DHT22;8984;49.268;12.302;2023-02-11T11:16:25;5.90;99.90
17728;DHT22;8984;49.268;12.302;2023-02-11T11:19:14;5.90;99.90
17728;DHT22;8984;49.268;12.302;2023-02-11T11:21:46;6.10;99.90
17728;DHT22;8984;49.268;12.302;2023-02-11T11:24:17;6.10;99.90
17728;DHT22;8984;49.268;12.302;2023-02-11T11:26:46;6.30;99.90
17728;DHT22;8984;49.268;12.302;2023-02-11T11:29:17;6.50;99.90
17728;DHT22;8984;49.268;12.302;2023-02-11T11:31:50;6.40;99.90
17728;DHT22;8984;49.268;12.302;2023-02-11T11:34:27;6.20;99.90
17728;DHT22;8984;49.268;12.302;2023-02-11T11:36:56;6.20;99.90
17728;DHT22;8984;49.268;12.302;2023-02-11T11:39:26;6.00;99.90
17728;DHT22;8984;49.268;12.302;2023-02-11T11:41:56;6.10;99.90
17728;DHT22;8984;49.268;12.302;2023-02-11T11:44:27;6.00;99.90
17728;DHT22;8984;49.268;12.302;2023-02-11T11:47:13;5.90;99.90
17728;DHT22;8984;49.268;12.302;2023-02-11T11:49:48;6.00;99.90
17728;DHT22;8984;49.268;12.302;2023-02-11T11:52:19;5.80;99.90
17728;DHT22;8984;49.268;12.302;2023-02-11T11:54:58;5.80;99.90
17728;DHT22;8984;49.268;12.302;2023-02-11T11:57:36;5.80;99.90
17728;DHT22;8984;49.268;12.302;2023-02-11T12:00:04;5.70;99.90
17728;DHT22;8984;49.268;12.302;2023-02-11T12:05:36;5.70;99.90
17728;DHT22;8984;49.268;12.302;2023-02-11T12:08:12;5.60;99.90
17728;DHT22;8984;49.268;12.302;2023-02-11T12:11:07;5.70;99.90
17728;DHT22;8984;49.268;12.302;2023-02-11T12:13:48;5.70;99.90
17728;DHT22;8984;49.268;12.302;2023-02-11T12:16:25;5.70;99.90
17728;DHT22;8984;49.268;12.302;2023-02-11T12:19:14;5.80;99.90
17728;DHT22;8984;49.268;12.302;2023-02-11T12:21:52;5.90;99.90
17728;DHT22;8984;49.268;12.302;2023-02-11T12:24:31;6.00;99.90
17728;DHT22;8984;49.268;12.302;2023-02-11T12:27:07;6.00;99.90
17728;DHT22;8984;49.268;12.302;2023-02-11T12:29:45;6.10;99.90
17728;DHT22;8984;49.268;12.302;2023-02-11T12:32:23;6.40;99.90
17728;DHT22;8984;49.268;12.302;2023-02-11T12:38:06;6.40;99.90
17728;DHT22;8984;49.268;12.302;2023-02-11T12:40:42;6.40;99.90
17728;DHT22;8984;49.268;12.302;2023-02-11T12:43:18;6.50;99.90
17728;DHT22;8984;49.268;12.302;2023-02-11T12:49:14;6.50;99.90
17728;DHT22;8984;49.268;12.302;2023-02-11T12:51:54;6.40;99.90
17728;DHT22;8984;49.268;12.302;2023-02-11T12:54:29;6.60;99.90
17728;DHT22;8984;49.268;12.302;2023-02-11T12:57:02;6.60;99.90
17728;DHT22;8984;49.268;12.302;2023-02-11T12:59:45;6.60;99.90
17728;DHT22;8984;49.268;12.302;2023-02-11T13:02:38;6.70;99.90
17728;DHT22;8984;49.268;12.302;2023-02-11T13:05:22;6.90;99.90
17728;DHT22;8984;49.268;12.302;2023-02-11T13:08:03;7.00;99.90
17728;DHT22;8984;49.268;12.302;2023-02-11T13:10:50;7.10;99.90
17728;DHT22;8984;49.268;12.302;2023-02-11T13:16:50;7.30;99.90
17728;DHT22;8984;49.268;12.302;2023-02-11T13:19:28;7.20;99.90
17728;DHT22;8984;49.268;12.302;2023-02-11T13:22:07;7.20;99.90
17728;DHT22;8984;49.268;12.302;2023-02-11T13:24:46;7.30;99.90
17728;DHT22;8984;49.268;12.302;2023-02-11T13:27:31;7.30;99.90
17728;DHT22;8984;49.268;12.302;2023-02-11T13:33:34;7.10;99.90
17728;DHT22;8984;49.268;12.302;2023-02-11T13:36:20;7.20;99.90
17728;DHT22;8984;49.268;12.302;2023-02-11T13:39:04;7.30;99.90
17728;DHT22;8984;49.268;12.302;2023-02-11T13:41:37;7.30;99.90
17728;DHT22;8984;49.268;12.302;2023-02-11T13:44:45;7.30;99.90
17728;DHT22;8984;49.268;12.302;2023-02-11T13:47:52;7.40;99.90
17728;DHT22;8984;49.268;12.302;2023-02-11T13:50:25;7.30;99.90
17728;DHT22;8984;49.268;12.302;2023-02-11T13:53:03;7.30;99.90
17728;DHT22;8984;49.268;12.302;2023-02-11T13:55:32;7.50;99.90
17728;DHT22;8984;49.268;12.302;2023-02-11T13:58:17;7.50;99.90
17728;DHT22;8984;49.268;12.302;2023-02-11T14:00:50;7.60;99.90
17728;DHT22;8984;49.268;12.302;2023-02-11T14:03:26;7.40;99.90
17728;DHT22;8984;49.268;12.302;2023-02-11T14:06:13;7.50;99.90
17728;DHT22;8984;49.268;12.302;2023-02-11T14:09:08;7.60;99.90
17728;DHT22;8984;49.268;12.302;2023-02-11T14:11:45;7.70;99.90
17728;DHT22;8984;49.268;12.302;2023-02-11T14:14:32;7.70;99.90
17728;DHT22;8984;49.268;12.302;2023-02-11T14:17:31;7.70;99.90
17728;DHT22;8984;49.268;12.302;2023-02-11T14:20:40;7.60;99.90
17728;DHT22;8984;49.268;12.302;2023-02-11T14:23:28;7.60;99.90
17728;DHT22;8984;49.268;12.302;2023-02-11T14:26:27;7.50;99.90
17728;DHT22;8984;49.268;12.302;2023-02-11T14:29:05;7.60;99.90
17728;DHT22;8984;49.268;12.302;2023-02-11T14:31:39;7.60;99.90
17728;DHT22;8984;49.268;12.302;2023-02-11T14:34:42;7.60;99.90
17728;DHT22;8984;49.268;12.302;2023-02-11T14:37:54;7.70;99.90
17728;DHT22;8984;49.268;12.302;2023-02-11T14:40:42;7.70;99.90
17728;DHT22;8984;49.268;12.302;2023-02-11T14:43:35;7.50;99.90
17728;DHT22;8984;49.268;12.302;2023-02-11T14:46:14;7.50;99.90
17728;DHT22;8984;49.268;12.302;2023-02-11T14:48:46;7.50;99.90
17728;DHT22;8984;49.268;12.302;2023-02-11T14:51:28;7.40;99.90
17728;DHT22;8984;49.268;12.302;2023-02-11T14:54:02;7.30;99.90
17728;DHT22;8984;49.268;12.302;2023-02-11T14:56:33;7.30;99.90
17728;DHT22;8984;49.268;12.302;2023-02-11T14:59:16;7.20;99.90
17728;DHT22;8984;49.268;12.302;2023-02-11T15:01:47;7.10;99.90
17728;DHT22;8984;49.268;12.302;2023-02-11T15:04:28;7.20;99.90
17728;DHT22;8984;49.268;12.302;2023-02-11T15:07:06;7.30;99.90
17728;DHT22;8984;49.268;12.302;2023-02-11T15:09:40;7.30;99.90
17728;DHT22;8984;49.268;12.302;2023-02-11T15:12:18;7.40;99.90
17728;DHT22;8984;49.268;12.302;2023-02-11T15:14:51;7.40;99.90
17728;DHT22;8984;49.268;12.302;2023-02-11T15:17:26;7.50;99.90
17728;DHT22;8984;49.268;12.302;2023-02-11T15:19:58;7.50;99.90
17728;DHT22;8984;49.268;12.302;2023-02-11T15:22:34;7.50;99.90
17728;DHT22;8984;49.268;12.302;2023-02-11T15:25:10;7.50;99.90
17728;DHT22;8984;49.268;12.302;2023-02-11T15:27:47;7.50;99.90
17728;DHT22;8984;49.268;12.302;2023-02-11T15:30:31;7.50;99.90
17728;DHT22;8984;49.268;12.302;2023-02-11T15:33:21;7.50;99.90
17728;DHT22;8984;49.268;12.302;2023-02-11T15:35:50;7.50;99.90
17728;DHT22;8984;49.268;12.302;2023-02-11T15:38:48;7.60;99.90
17728;DHT22;8984;49.268;12.302;2023-02-11T15:41:37;7.40;99.90
17728;DHT22;8984;49.268;12.302;2023-02-11T15:44:31;7.40;99.90
17728;DHT22;8984;49.268;12.302;2023-02-11T15:47:10;7.40;99.90
17728;DHT22;8984;49.268;12.302;2023-02-11T15:49:49;7.40;99.90
17728;DHT22;8984;49.268;12.302;2023-02-11T15:52:24;7.30;99.90
17728;DHT22;8984;49.268;12.302;2023-02-11T15:55:12;7.20;99.90
17728;DHT22;8984;49.268;12.302;2023-02-11T15:57:52;7.20;99.90
17728;DHT22;8984;49.268;12.302;2023-02-11T16:00:34;7.00;99.90
17728;DHT22;8984;49.268;12.302;2023-02-11T16:03:20;7.00;99.90
17728;DHT22;8984;49.268;12.302;2023-02-11T16:06:26;7.00;99.90
17728;DHT22;8984;49.268;12.302;2023-02-11T16:09:04;7.00;99.90
17728;DHT22;8984;49.268;12.302;2023-02-11T16:11:55;7.00;99.90
17728;DHT22;8984;49.268;12.302;2023-02-11T16:14:29;7.00;99.90
17728;DHT22;8984;49.268;12.302;2023-02-11T16:17:05;6.90;99.90
17728;DHT22;8984;49.268;12.302;2023-02-11T16:19:35;6.90;99.90
17728;DHT22;8984;49.268;12.302;2023-02-11T16:22:10;6.90;99.90
17728;DHT22;8984;49.268;12.302;2023-02-11T16:24:51;6.80;99.90
17728;DHT22;8984;49.268;12.302;2023-02-11T16:27:23;6.80;99.90
17728;DHT22;8984;49.268;12.302;2023-02-11T16:30:01;6.80;99.90
17728;DHT22;8984;49.268;12.302;2023-02-11T16:32:40;6.80;99.90
17728;DHT22;8984;49.268;12.302;2023-02-11T16:35:22;6.80;99.90